Jump to content


TAMPA CARGO FLIGHT QT431 FLOWN ON 09-30-2017 BY CAPTAIN ADEL CABALLIN

Pilot StatsCaptain Adel Caballin (LDP11) • 707.2 total hours • 382 total flights [View Logbook]
FLIGHT DETAILS
StatusReceived and approved on 2017-09-30 at 13:09:28
Origin AirportJuan Santamaria Intl (MROC) • San Jose, Costa Rica (3,020 feet MSL)
Filed Flight PlanMROC CACHI UG440 TBG MPTO
Destination AirportTocumen Intl (MPTO) • Panama City, Panama (135 feet MSL)
Alternate AirportJuan Santamaria Intl (MROC) • San Jose, Costa Rica (3,020 feet MSL)
AirlineTampa Cargo
AircraftBoeing 767-300 Freighter (76F / B767-300F)
FS Aircraft UsedLevel D Simulations B767-300ER - Tampa Cargo N771QT
Cruising AltitudeFL340
Distance Flown291 nautical miles
Cargo Onboard70,200 lbs (96.65% full)
DEPARTURE DETAILS
Time Out12:05:42
Taxi Data309,646 lbs total with 42,446 lbs of fuel onboard
Takeoff Data12:18:35 (13 minutes after leaving gate/ramp) • 307,567 lbs total • 8° pitch at 154 knots
Departure METARMROC 301500Z 24009KT CAVOK 24/20 A3000 NOSIG
ARRIVAL DETAILS
Landing Data13:07:05 • 297,654 lbs total • 5° pitch doing 129 knots at a rate of -183.01 feet/minute with 28,476 lbs of fuel onboard
Time In13:20:41 (14 minutes after landing)
Ramp Weight295,676 lbs total
Total Fuel Used13,970 lbs
Total Block Time01:14:56 (1.2 hours) while 26 minutes were spent on the ground
Arrival METARMPTO 301800Z 12006KT 6000 -RA SCT005 SCT015CB BKN080 26/24 Q1012 RWY WET NOSIG
MISCELLANEOUS DETAILS
LiveDISPATCH Version4.8.3.1
FS Version
FSUIPC Version4.97
OS VersionWindows 7 32-bit
Screen Resolution1920 x 1080
Pilot's CommentsRoute: COCOS3 ISEBA UG440 TBG
FLIGHT MAP